Time;durP1;ratioP1;P1;durP2;ratioP2;P2;SDS_P1;SDS_P2;PMS_P1;PMS_P2;Temp;Humidity;BMP_temperature;BMP_pressure;BME280_temperature;BME280_humidity;BME280_pressure;Samples;Min_cycle;Max_cycle;Signal;HPM_P1;HPM_P2
2021/12/11 00:00:37;;;;;;;;;;;0.30;99.90;;;;;;5033528;28;19959;-68
2021/12/11 00:03:08;;;;;;;;;;;0.20;99.90;;;;;;5033772;28;19944;-68
2021/12/11 00:05:35;;;;;;;;;;;0.30;99.90;;;;;;5033829;28;19909;-68
2021/12/11 00:08:00;;;;;;;;;;;0.20;99.90;;;;;;5034331;28;19974;-68
2021/12/11 00:10:30;;;;;;;;;;;0.20;99.90;;;;;;5033359;28;20364;-68
2021/12/11 00:13:00;;;;;;;;;;;0.20;99.90;;;;;;5033572;28;19999;-68
2021/12/11 00:15:32;;;;;;;;;;;0.30;99.90;;;;;;5034532;28;19959;-68
2021/12/11 00:18:00;;;;;;;;;;;0.30;99.90;;;;;;5034161;28;19935;-68
2021/12/11 00:20:29;;;;;;;;;;;0.30;99.90;;;;;;5033366;28;20388;-68
2021/12/11 00:22:54;;;;;;;;;;;0.30;99.90;;;;;;5045574;28;19993;-68
2021/12/11 00:25:20;;;;;;;;;;;0.40;99.90;;;;;;5054035;28;19948;-68
2021/12/11 00:27:48;;;;;;;;;;;0.50;99.90;;;;;;5053695;28;19940;-68
2021/12/11 00:30:27;;;;;;;;;;;0.50;99.90;;;;;;5036457;28;20399;-68
2021/12/11 00:33:00;;;;;;;;;;;0.50;99.90;;;;;;5033889;28;19905;-68
2021/12/11 00:35:25;;;;;;;;;;;0.50;99.90;;;;;;5034024;28;20364;-68
2021/12/11 00:37:51;;;;;;;;;;;0.40;99.90;;;;;;5033269;28;19948;-68
2021/12/11 00:40:21;;;;;;;;;;;0.40;99.90;;;;;;5032495;28;19951;-69
2021/12/11 00:42:48;;;;;;;;;;;0.50;99.90;;;;;;5033813;28;20540;-68
2021/12/11 00:45:16;;;;;;;;;;;0.50;99.90;;;;;;5033711;28;19912;-68
2021/12/11 00:47:46;;;;;;;;;;;0.60;99.90;;;;;;5033357;28;19909;-68
2021/12/11 00:50:13;;;;;;;;;;;0.70;99.90;;;;;;5032451;28;20299;-68
2021/12/11 00:52:41;;;;;;;;;;;0.70;99.90;;;;;;5033313;28;19905;-68
2021/12/11 00:55:15;;;;;;;;;;;0.60;99.90;;;;;;5033554;28;19941;-68
2021/12/11 00:57:41;;;;;;;;;;;0.70;99.90;;;;;;5033076;28;19913;-68
2021/12/11 01:00:09;;;;;;;;;;;0.70;99.90;;;;;;5032730;28;19912;-69
2021/12/11 01:02:34;;;;;;;;;;;0.70;99.90;;;;;;5032738;28;19955;-68
2021/12/11 01:05:00;;;;;;;;;;;0.70;99.90;;;;;;5033001;28;19999;-68
2021/12/11 01:07:32;;;;;;;;;;;0.60;99.90;;;;;;5033619;28;20348;-68
2021/12/11 01:10:08;;;;;;;;;;;0.40;99.90;;;;;;5033213;28;20265;-68
2021/12/11 01:12:46;;;;;;;;;;;0.40;99.90;;;;;;5033002;28;20016;-68
2021/12/11 01:15:15;;;;;;;;;;;0.50;99.90;;;;;;5033006;28;19917;-68
2021/12/11 01:17:59;;;;;;;;;;;0.50;99.90;;;;;;5032689;28;19913;-68
2021/12/11 01:20:35;;;;;;;;;;;0.50;99.90;;;;;;5032079;28;19909;-68
2021/12/11 01:23:01;;;;;;;;;;;0.50;99.90;;;;;;5031933;28;19923;-68
2021/12/11 01:25:27;;;;;;;;;;;0.50;99.90;;;;;;5032521;28;19963;-68
2021/12/11 01:27:57;;;;;;;;;;;0.40;99.90;;;;;;5032697;28;19905;-68
2021/12/11 01:30:36;;;;;;;;;;;0.40;99.90;;;;;;5031913;28;20367;-68
2021/12/11 01:33:03;;;;;;;;;;;0.40;99.90;;;;;;5032741;28;19984;-68
2021/12/11 01:35:28;;;;;;;;;;;0.50;99.90;;;;;;5032642;28;20331;-68
2021/12/11 01:38:02;;;;;;;;;;;0.50;99.90;;;;;;5032588;28;20011;-68
2021/12/11 01:40:31;;;;;;;;;;;0.60;99.90;;;;;;5031427;28;19913;-68
2021/12/11 01:42:57;;;;;;;;;;;0.60;99.90;;;;;;5032880;28;19905;-68
2021/12/11 01:45:23;;;;;;;;;;;0.60;99.90;;;;;;5032552;28;19905;-68
2021/12/11 01:47:48;;;;;;;;;;;0.50;99.90;;;;;;5032692;28;19967;-68
2021/12/11 01:50:14;;;;;;;;;;;0.50;99.90;;;;;;5031453;28;19916;-68
2021/12/11 01:52:44;;;;;;;;;;;0.40;99.90;;;;;;5032540;28;19912;-68
2021/12/11 01:55:17;;;;;;;;;;;0.50;99.90;;;;;;5032352;28;20253;-68
2021/12/11 01:57:46;;;;;;;;;;;0.50;99.90;;;;;;5032225;28;19931;-69
2021/12/11 02:00:20;;;;;;;;;;;0.60;99.90;;;;;;5031345;28;19962;-69
2021/12/11 02:02:47;;;;;;;;;;;0.60;99.90;;;;;;5032337;28;19911;-69
2021/12/11 02:05:15;;;;;;;;;;;0.60;99.90;;;;;;5032385;28;19905;-69
2021/12/11 02:07:49;;;;;;;;;;;0.60;99.90;;;;;;5032357;28;20375;-69
2021/12/11 02:10:18;;;;;;;;;;;0.70;99.90;;;;;;5031582;28;19906;-69
2021/12/11 02:12:44;;;;;;;;;;;0.60;99.90;;;;;;5032139;28;20004;-69
2021/12/11 02:15:12;;;;;;;;;;;0.60;99.90;;;;;;5032389;28;20006;-68
2021/12/11 02:17:41;;;;;;;;;;;0.60;99.90;;;;;;5032290;28;20271;-69
2021/12/11 02:20:11;;;;;;;;;;;0.60;99.90;;;;;;5031148;28;19913;-68
2021/12/11 02:22:40;;;;;;;;;;;0.50;99.90;;;;;;5032376;28;19912;-68
2021/12/11 02:25:08;;;;;;;;;;;0.50;99.90;;;;;;5032424;28;19967;-68
2021/12/11 02:27:35;;;;;;;;;;;0.40;99.90;;;;;;5032237;28;19905;-68
2021/12/11 02:30:18;;;;;;;;;;;0.40;99.90;;;;;;5031320;28;19913;-68
2021/12/11 02:32:48;;;;;;;;;;;0.40;99.90;;;;;;5032284;28;19906;-68
2021/12/11 02:35:24;;;;;;;;;;;0.30;99.90;;;;;;5033022;28;19905;-68
2021/12/11 02:37:56;;;;;;;;;;;0.30;99.90;;;;;;5035849;28;20678;-69
2021/12/11 02:40:43;;;;;;;;;;;0.40;99.90;;;;;;5035306;28;19958;-69
2021/12/11 02:43:13;;;;;;;;;;;0.40;99.90;;;;;;5025558;28;19916;-68
2021/12/11 02:45:42;;;;;;;;;;;0.40;99.90;;;;;;5036162;28;19924;-69
2021/12/11 02:48:10;;;;;;;;;;;0.40;99.90;;;;;;5035732;28;20050;-68
2021/12/11 02:50:59;;;;;;;;;;;0.40;99.90;;;;;;5034990;28;19951;-69
2021/12/11 02:53:27;;;;;;;;;;;0.30;99.90;;;;;;5035049;28;19940;-68
2021/12/11 02:56:13;;;;;;;;;;;0.40;99.90;;;;;;5035358;28;20307;-68
2021/12/11 02:58:40;;;;;;;;;;;0.30;99.90;;;;;;5035568;28;19913;-68
2021/12/11 03:01:13;;;;;;;;;;;0.30;99.90;;;;;;5034539;28;19948;-69
2021/12/11 03:03:42;;;;;;;;;;;0.40;99.90;;;;;;5035420;28;19944;-68
2021/12/11 03:06:22;;;;;;;;;;;0.30;99.90;;;;;;5035667;28;19927;-68
2021/12/11 03:08:49;;;;;;;;;;;0.20;99.90;;;;;;5035493;28;19904;-68
2021/12/11 03:11:16;;;;;;;;;;;0.10;99.90;;;;;;5034661;28;19951;-68
2021/12/11 03:13:44;;;;;;;;;;;0.10;99.90;;;;;;5035565;28;20379;-68
2021/12/11 03:16:10;;;;;;;;;;;0.10;99.90;;;;;;5035096;28;19905;-68
2021/12/11 03:18:36;;;;;;;;;;;0.00;99.90;;;;;;5035160;28;19920;-68
2021/12/11 03:21:01;;;;;;;;;;;0.00;99.90;;;;;;5034190;28;19913;-69
2021/12/11 03:23:27;;;;;;;;;;;0.00;99.90;;;;;;5035432;28;20431;-68
2021/12/11 03:25:53;;;;;;;;;;;0.10;99.90;;;;;;5034735;28;19913;-68
2021/12/11 03:28:20;;;;;;;;;;;0.10;99.90;;;;;;5021806;28;20356;-68
2021/12/11 03:30:50;;;;;;;;;;;0.10;99.90;;;;;;5033427;28;19909;-68
2021/12/11 03:33:17;;;;;;;;;;;0.10;99.90;;;;;;5034660;28;20272;-68
2021/12/11 03:35:43;;;;;;;;;;;0.20;99.90;;;;;;5035060;28;19905;-68
2021/12/11 03:38:09;;;;;;;;;;;0.10;99.90;;;;;;5035082;28;19935;-68
2021/12/11 03:40:35;;;;;;;;;;;0.00;99.90;;;;;;5041238;28;19955;-68
2021/12/11 03:43:01;;;;;;;;;;;0.10;99.90;;;;;;5034809;28;19909;-68
2021/12/11 03:45:30;;;;;;;;;;;0.10;99.90;;;;;;5034663;28;19949;-68
2021/12/11 03:47:58;;;;;;;;;;;0.20;99.90;;;;;;5033600;28;19924;-68
2021/12/11 03:50:25;;;;;;;;;;;0.20;99.90;;;;;;5032680;28;19935;-68
2021/12/11 03:52:54;;;;;;;;;;;0.10;99.90;;;;;;5034788;28;19909;-68
2021/12/11 03:55:24;;;;;;;;;;;0.10;99.90;;;;;;5034561;28;19921;-68
2021/12/11 03:57:55;;;;;;;;;;;0.10;99.90;;;;;;5034529;28;19912;-68
2021/12/11 04:00:22;;;;;;;;;;;0.10;99.90;;;;;;5033720;28;19920;-68
2021/12/11 04:02:48;;;;;;;;;;;0.10;99.90;;;;;;5034619;28;19944;-68
2021/12/11 04:05:14;;;;;;;;;;;0.00;99.90;;;;;;5034558;28;19905;-68
2021/12/11 04:07:42;;;;;;;;;;;0.00;99.90;;;;;;5034443;28;19912;-68
2021/12/11 04:10:09;;;;;;;;;;;0.00;99.90;;;;;;5033178;28;19916;-68
2021/12/11 04:12:34;;;;;;;;;;;0.00;99.90;;;;;;5034092;28;19913;-68
2021/12/11 04:15:00;;;;;;;;;;;0.00;99.90;;;;;;5034448;28;19905;-68
2021/12/11 04:17:27;;;;;;;;;;;-0.10;99.90;;;;;;5033639;28;19919;-68
2021/12/11 04:19:55;;;;;;;;;;;-0.10;99.90;;;;;;5033708;28;19959;-68
2021/12/11 04:22:21;;;;;;;;;;;0.00;99.90;;;;;;5033622;28;19909;-68
2021/12/11 04:24:48;;;;;;;;;;;-0.10;99.90;;;;;;5033871;28;20379;-68
2021/12/11 04:27:15;;;;;;;;;;;-0.10;99.90;;;;;;5033897;28;19912;-68
2021/12/11 04:29:41;;;;;;;;;;;-0.10;99.90;;;;;;5038853;28;19963;-68
2021/12/11 04:32:07;;;;;;;;;;;-0.10;99.90;;;;;;5033218;28;19905;-68
2021/12/11 04:34:33;;;;;;;;;;;-0.10;99.90;;;;;;5033922;28;19905;-68
2021/12/11 04:37:02;;;;;;;;;;;-0.20;99.90;;;;;;5033820;28;19909;-68
2021/12/11 04:39:33;;;;;;;;;;;-0.10;99.90;;;;;;5033032;28;20394;-68
2021/12/11 04:42:06;;;;;;;;;;;-0.20;99.90;;;;;;5046216;28;19913;-68
2021/12/11 04:44:36;;;;;;;;;;;-0.20;99.90;;;;;;5053880;28;19948;-68
2021/12/11 04:47:08;;;;;;;;;;;-0.10;99.90;;;;;;5053573;28;19915;-67
2021/12/11 04:49:43;;;;;;;;;;;-0.20;99.90;;;;;;5042711;28;19908;-67
2021/12/11 04:52:23;;;;;;;;;;;-0.20;99.90;;;;;;5032831;28;19904;-68
2021/12/11 05:00:40;;;;;;;;;;;-0.10;99.90;;;;;;5032541;28;19963;-68
2021/12/11 05:06:02;;;;;;;;;;;-0.20;99.90;;;;;;5033742;28;19912;-67
2021/12/11 05:11:08;;;;;;;;;;;-0.20;99.90;;;;;;5032175;28;19905;-67
2021/12/11 05:13:34;;;;;;;;;;;-0.20;99.90;;;;;;5033431;28;19911;-67
2021/12/11 05:16:01;;;;;;;;;;;-0.20;99.90;;;;;;5032879;28;19905;-67
2021/12/11 05:18:29;;;;;;;;;;;-0.30;99.90;;;;;;5033013;28;19913;-68
2021/12/11 05:20:58;;;;;;;;;;;-0.30;99.90;;;;;;5026754;28;19909;-67
2021/12/11 05:23:23;;;;;;;;;;;-0.30;99.90;;;;;;5032899;28;19905;-67
2021/12/11 05:25:49;;;;;;;;;;;-0.20;99.90;;;;;;5031358;28;20417;-67
2021/12/11 05:28:15;;;;;;;;;;;-0.20;99.90;;;;;;5033050;28;20394;-67
2021/12/11 05:30:44;;;;;;;;;;;-0.20;99.90;;;;;;5031251;28;20448;-67
2021/12/11 05:33:09;;;;;;;;;;;-0.10;99.90;;;;;;5032966;28;19905;-67
2021/12/11 05:35:36;;;;;;;;;;;-0.20;99.90;;;;;;5032855;28;20027;-67
2021/12/11 05:38:03;;;;;;;;;;;-0.10;99.90;;;;;;5032272;28;20353;-67
2021/12/11 05:40:29;;;;;;;;;;;-0.20;99.90;;;;;;5024398;28;19909;-68
2021/12/11 05:42:55;;;;;;;;;;;-0.20;99.90;;;;;;5034295;28;19996;-67
2021/12/11 05:45:20;;;;;;;;;;;-0.30;99.90;;;;;;5031601;28;20340;-67
2021/12/11 05:47:47;;;;;;;;;;;-0.30;99.90;;;;;;5029148;28;19984;-67
2021/12/11 05:50:15;;;;;;;;;;;-0.30;99.90;;;;;;5030372;28;19992;-67
2021/12/11 05:52:41;;;;;;;;;;;-0.20;99.90;;;;;;5032812;28;19913;-67
2021/12/11 05:55:10;;;;;;;;;;;-0.30;99.90;;;;;;5032610;28;19905;-67
2021/12/11 05:57:36;;;;;;;;;;;-0.30;99.90;;;;;;5032780;28;20316;-67
2021/12/11 06:00:11;;;;;;;;;;;-0.40;99.90;;;;;;5030748;28;20319;-68
2021/12/11 06:02:37;;;;;;;;;;;-0.40;99.90;;;;;;5032524;28;19912;-67
2021/12/11 06:05:03;;;;;;;;;;;-0.40;99.90;;;;;;5035074;28;19908;-67
2021/12/11 06:07:29;;;;;;;;;;;-0.40;99.90;;;;;;5033010;28;19909;-67
2021/12/11 06:09:57;;;;;;;;;;;-0.40;99.90;;;;;;5033054;28;19905;-67
2021/12/11 06:12:23;;;;;;;;;;;-0.40;99.90;;;;;;5036042;28;20352;-67
2021/12/11 06:14:49;;;;;;;;;;;-0.40;99.90;;;;;;5036520;28;19950;-67
2021/12/11 06:17:16;;;;;;;;;;;-0.40;99.90;;;;;;5043645;28;20283;-67
2021/12/11 06:19:48;;;;;;;;;;;-0.40;99.90;;;;;;5038393;28;19987;-67
2021/12/11 06:22:14;;;;;;;;;;;-0.30;99.90;;;;;;5035842;28;19912;-67
2021/12/11 06:24:39;;;;;;;;;;;-0.30;99.90;;;;;;5036461;28;19913;-67
2021/12/11 06:27:05;;;;;;;;;;;-0.30;99.90;;;;;;5037459;28;19911;-67
2021/12/11 06:29:31;;;;;;;;;;;-0.40;99.90;;;;;;5047214;28;19935;-67
2021/12/11 06:31:57;;;;;;;;;;;-0.40;99.90;;;;;;5035588;28;20056;-67
2021/12/11 06:34:22;;;;;;;;;;;-0.40;99.90;;;;;;5043209;28;19920;-67
2021/12/11 06:36:48;;;;;;;;;;;-0.40;99.90;;;;;;5036477;28;19909;-67
2021/12/11 06:39:16;;;;;;;;;;;-0.40;99.90;;;;;;5035753;28;20407;-67
2021/12/11 06:41:44;;;;;;;;;;;-0.30;99.90;;;;;;5046072;28;19983;-67
2021/12/11 06:44:10;;;;;;;;;;;-0.30;99.90;;;;;;5055838;28;20382;-67
2021/12/11 06:46:36;;;;;;;;;;;-0.30;99.90;;;;;;5055133;28;19912;-67
2021/12/11 06:49:03;;;;;;;;;;;-0.30;99.90;;;;;;5035145;28;19956;-66
2021/12/11 06:51:29;;;;;;;;;;;-0.30;99.90;;;;;;5035375;28;19905;-66
2021/12/11 06:53:56;;;;;;;;;;;-0.30;99.90;;;;;;5035727;28;19912;-66
2021/12/11 06:56:22;;;;;;;;;;;-0.30;99.90;;;;;;5035199;28;19913;-67
2021/12/11 06:58:47;;;;;;;;;;;-0.30;99.90;;;;;;5033988;28;19920;-67
2021/12/11 07:01:13;;;;;;;;;;;-0.30;99.90;;;;;;5033855;28;19916;-67
2021/12/11 07:03:39;;;;;;;;;;;-0.20;99.90;;;;;;5035588;28;19955;-67
2021/12/11 07:06:05;;;;;;;;;;;-0.10;99.90;;;;;;5035338;28;19963;-67
2021/12/11 07:08:31;;;;;;;;;;;-0.10;99.90;;;;;;5035964;28;20383;-67
2021/12/11 07:10:58;;;;;;;;;;;-0.10;99.90;;;;;;5034414;28;19909;-67
2021/12/11 07:13:24;;;;;;;;;;;0.00;99.90;;;;;;5035309;28;19908;-67
2021/12/11 07:15:49;;;;;;;;;;;0.00;99.90;;;;;;5035180;28;19912;-67
2021/12/11 07:18:14;;;;;;;;;;;-0.10;99.90;;;;;;5035358;28;19913;-67
2021/12/11 07:20:40;;;;;;;;;;;0.00;99.90;;;;;;5037474;28;19913;-67
2021/12/11 07:23:05;;;;;;;;;;;0.00;99.90;;;;;;5035353;28;19904;-67
2021/12/11 07:25:42;;;;;;;;;;;0.00;99.90;;;;;;5035107;28;20395;-67
2021/12/11 07:28:09;;;;;;;;;;;-0.10;99.90;;;;;;5034996;28;20023;-67
2021/12/11 07:30:35;;;;;;;;;;;-0.10;99.90;;;;;;5034243;28;19936;-67
2021/12/11 07:33:04;;;;;;;;;;;-0.20;99.90;;;;;;5034988;28;19928;-67
2021/12/11 07:35:31;;;;;;;;;;;-0.10;99.90;;;;;;5034633;28;19913;-67
2021/12/11 07:37:56;;;;;;;;;;;-0.10;99.90;;;;;;5034918;28;19905;-67
2021/12/11 07:40:23;;;;;;;;;;;-0.10;99.90;;;;;;5033515;28;19923;-67
2021/12/11 07:42:49;;;;;;;;;;;-0.10;99.90;;;;;;5034708;28;20367;-67
2021/12/11 07:45:16;;;;;;;;;;;0.00;99.90;;;;;;5034659;28;19929;-67
2021/12/11 07:47:41;;;;;;;;;;;0.00;99.90;;;;;;5034982;28;19913;-67
2021/12/11 07:50:07;;;;;;;;;;;-0.10;99.90;;;;;;5033724;28;20322;-67
2021/12/11 07:52:32;;;;;;;;;;;-0.10;99.90;;;;;;5034681;28;19916;-66
2021/12/11 07:54:58;;;;;;;;;;;-0.10;99.90;;;;;;5034208;28;19913;-67
2021/12/11 07:57:23;;;;;;;;;;;-0.20;99.90;;;;;;5034536;28;19904;-66
2021/12/11 07:59:49;;;;;;;;;;;-0.20;99.90;;;;;;5033841;28;19920;-67
2021/12/11 08:02:14;;;;;;;;;;;-0.20;99.90;;;;;;5034089;28;20006;-67
2021/12/11 08:04:40;;;;;;;;;;;-0.30;99.90;;;;;;5034132;28;19916;-67
2021/12/11 08:07:05;;;;;;;;;;;-0.30;99.90;;;;;;5034163;28;20410;-66
2021/12/11 08:09:31;;;;;;;;;;;-0.30;99.90;;;;;;5033875;28;20275;-66
2021/12/11 08:11:56;;;;;;;;;;;-0.30;99.90;;;;;;5033245;28;19909;-66
2021/12/11 08:14:22;;;;;;;;;;;-0.30;99.90;;;;;;5034069;28;20344;-66
2021/12/11 08:16:49;;;;;;;;;;;-0.30;99.90;;;;;;5034041;28;19905;-66
2021/12/11 08:19:22;;;;;;;;;;;-0.40;99.90;;;;;;5033401;28;20272;-66
2021/12/11 08:21:49;;;;;;;;;;;-0.40;99.90;;;;;;5033693;28;19909;-66
2021/12/11 08:24:16;;;;;;;;;;;-0.40;99.90;;;;;;5033502;28;20344;-66
2021/12/11 08:26:42;;;;;;;;;;;-0.30;99.90;;;;;;5033902;28;19909;-66
2021/12/11 08:29:09;;;;;;;;;;;-0.30;99.90;;;;;;5033728;28;19940;-66
2021/12/11 08:31:35;;;;;;;;;;;-0.30;99.90;;;;;;5033687;28;19905;-66
2021/12/11 08:34:00;;;;;;;;;;;-0.30;99.90;;;;;;5033124;28;20257;-66
2021/12/11 08:36:26;;;;;;;;;;;-0.20;99.90;;;;;;5033314;28;19916;-66
2021/12/11 08:38:52;;;;;;;;;;;-0.20;99.90;;;;;;5033374;28;19987;-67
2021/12/11 08:41:19;;;;;;;;;;;-0.20;99.90;;;;;;5030696;28;19960;-66
2021/12/11 08:43:52;;;;;;;;;;;-0.20;99.90;;;;;;5032446;28;19909;-67
2021/12/11 08:46:27;;;;;;;;;;;-0.10;99.90;;;;;;5034891;28;19991;-67
2021/12/11 08:48:54;;;;;;;;;;;-0.10;99.90;;;;;;5033573;28;20352;-67
2021/12/11 08:51:39;;;;;;;;;;;-0.10;99.90;;;;;;5035997;28;19909;-67
2021/12/11 08:54:05;;;;;;;;;;;-0.10;99.90;;;;;;5033606;28;19932;-67
2021/12/11 08:56:30;;;;;;;;;;;0.00;99.90;;;;;;5033231;28;19912;-68
2021/12/11 08:58:56;;;;;;;;;;;0.10;99.90;;;;;;5034283;28;19916;-68
2021/12/11 09:01:24;;;;;;;;;;;0.30;99.90;;;;;;5044550;28;19908;-68
2021/12/11 09:04:17;;;;;;;;;;;0.50;99.90;;;;;;5038295;28;19935;-68
2021/12/11 09:06:46;;;;;;;;;;;0.50;99.90;;;;;;5028378;28;19912;-68
2021/12/11 09:09:38;;;;;;;;;;;0.50;99.90;;;;;;5025730;28;19919;-68
2021/12/11 09:12:12;;;;;;;;;;;0.40;99.90;;;;;;5033804;28;19931;-69
2021/12/11 09:14:51;;;;;;;;;;;0.40;99.90;;;;;;5049310;28;19905;-69
2021/12/11 09:17:23;;;;;;;;;;;0.30;99.90;;;;;;5033130;28;20378;-69
2021/12/11 09:19:54;;;;;;;;;;;0.40;99.90;;;;;;5033133;28;19913;-68
2021/12/11 09:22:20;;;;;;;;;;;0.40;99.90;;;;;;5031839;28;19913;-69
2021/12/11 09:24:49;;;;;;;;;;;0.50;99.90;;;;;;5032640;28;19919;-69
2021/12/11 09:27:41;;;;;;;;;;;0.60;99.90;;;;;;5032710;28;19963;-69
2021/12/11 09:30:06;;;;;;;;;;;0.70;99.90;;;;;;5032020;28;19909;-69
2021/12/11 09:32:35;;;;;;;;;;;0.80;99.90;;;;;;5032856;28;20021;-69
2021/12/11 09:35:09;;;;;;;;;;;1.00;99.90;;;;;;5032946;28;19911;-69
2021/12/11 09:37:35;;;;;;;;;;;1.10;99.90;;;;;;5032489;28;20272;-69
2021/12/11 09:40:10;;;;;;;;;;;1.20;99.90;;;;;;5032360;28;19913;-69
2021/12/11 09:42:35;;;;;;;;;;;1.30;99.90;;;;;;5032712;28;20265;-69
2021/12/11 09:45:09;;;;;;;;;;;1.50;99.90;;;;;;5032113;28;19916;-69
2021/12/11 09:47:38;;;;;;;;;;;1.60;99.90;;;;;;5032641;28;19935;-69
2021/12/11 09:50:09;;;;;;;;;;;1.80;99.90;;;;;;5031928;28;19950;-69
2021/12/11 09:52:35;;;;;;;;;;;1.90;99.90;;;;;;5038953;28;19905;-69
2021/12/11 09:55:09;;;;;;;;;;;2.10;99.90;;;;;;5049704;28;20367;-69
2021/12/11 09:57:37;;;;;;;;;;;2.20;99.90;;;;;;5040802;28;19908;-69
2021/12/11 10:00:09;;;;;;;;;;;2.30;99.90;;;;;;5051696;28;19912;-69
2021/12/11 10:02:35;;;;;;;;;;;2.50;99.90;;;;;;5039835;28;19951;-69
2021/12/11 10:05:18;;;;;;;;;;;2.60;99.90;;;;;;5032398;28;19963;-68
2021/12/11 10:08:00;;;;;;;;;;;2.70;99.90;;;;;;5032721;28;19913;-69
2021/12/11 10:10:26;;;;;;;;;;;2.80;99.90;;;;;;5031727;28;19909;-69
2021/12/11 10:12:54;;;;;;;;;;;3.00;99.90;;;;;;5032258;28;19905;-69
2021/12/11 10:15:28;;;;;;;;;;;3.00;99.90;;;;;;5032371;28;19905;-69
2021/12/11 10:18:05;;;;;;;;;;;3.10;99.90;;;;;;5033643;28;19913;-69
2021/12/11 10:20:43;;;;;;;;;;;3.10;99.90;;;;;;5051523;28;19915;-69
2021/12/11 10:23:09;;;;;;;;;;;3.20;99.90;;;;;;5052247;28;20319;-69
2021/12/11 10:25:36;;;;;;;;;;;3.30;99.90;;;;;;5052188;28;19962;-69
2021/12/11 10:28:04;;;;;;;;;;;3.20;99.90;;;;;;5052595;28;19923;-69
2021/12/11 10:30:31;;;;;;;;;;;3.20;99.90;;;;;;5051590;28;19905;-69
2021/12/11 10:32:56;;;;;;;;;;;3.10;99.90;;;;;;5044361;28;19912;-69
2021/12/11 10:35:25;;;;;;;;;;;3.20;99.90;;;;;;5032036;28;19906;-69
2021/12/11 10:37:51;;;;;;;;;;;3.40;99.90;;;;;;5031986;28;19905;-69
2021/12/11 10:40:19;;;;;;;;;;;3.50;99.90;;;;;;5027041;28;20003;-69
2021/12/11 10:42:49;;;;;;;;;;;3.50;99.90;;;;;;5032343;28;19909;-69
2021/12/11 10:45:15;;;;;;;;;;;3.50;99.90;;;;;;5032334;28;19906;-69
2021/12/11 10:47:43;;;;;;;;;;;3.60;99.90;;;;;;5032172;28;19905;-69
2021/12/11 10:50:15;;;;;;;;;;;3.70;99.90;;;;;;5031457;28;19905;-69
2021/12/11 10:52:40;;;;;;;;;;;3.80;99.90;;;;;;5040248;28;19913;-70
2021/12/11 10:55:09;;;;;;;;;;;3.90;99.90;;;;;;5043051;28;19980;-68
2021/12/11 10:57:35;;;;;;;;;;;3.90;99.90;;;;;;5042266;28;19909;-69
2021/12/11 11:00:03;;;;;;;;;;;3.90;99.90;;;;;;5035371;28;19909;-69
2021/12/11 11:02:30;;;;;;;;;;;3.90;99.90;;;;;;5035743;28;19909;-69
2021/12/11 11:04:58;;;;;;;;;;;3.90;99.90;;;;;;5035261;28;19909;-69
2021/12/11 11:07:24;;;;;;;;;;;3.90;99.90;;;;;;5035196;28;19915;-69
2021/12/11 11:09:50;;;;;;;;;;;3.90;99.90;;;;;;5034531;28;19909;-69
2021/12/11 11:12:18;;;;;;;;;;;3.80;99.90;;;;;;5034708;28;19916;-67
2021/12/11 11:14:44;;;;;;;;;;;3.70;99.90;;;;;;5034703;28;19909;-70
2021/12/11 11:17:13;;;;;;;;;;;3.60;99.90;;;;;;5035213;28;20421;-70
2021/12/11 11:19:40;;;;;;;;;;;3.40;99.90;;;;;;5034341;28;19948;-69
2021/12/11 11:22:07;;;;;;;;;;;3.20;99.90;;;;;;5034267;28;19908;-70
2021/12/11 11:24:36;;;;;;;;;;;3.00;99.90;;;;;;5034693;28;20541;-70
2021/12/11 11:27:02;;;;;;;;;;;2.90;99.90;;;;;;5035076;28;19909;-70
2021/12/11 11:29:28;;;;;;;;;;;2.80;99.90;;;;;;5035086;28;19928;-70
2021/12/11 11:31:56;;;;;;;;;;;2.60;99.90;;;;;;5034471;28;19905;-70
2021/12/11 11:34:23;;;;;;;;;;;2.60;99.90;;;;;;5035103;28;19913;-69
2021/12/11 11:36:49;;;;;;;;;;;2.50;99.90;;;;;;5035327;28;19916;-70
2021/12/11 11:39:16;;;;;;;;;;;2.50;99.90;;;;;;5035023;28;19913;-70
2021/12/11 11:41:43;;;;;;;;;;;2.50;99.90;;;;;;5034380;28;20280;-70
2021/12/11 11:44:09;;;;;;;;;;;2.50;99.90;;;;;;5035180;28;19995;-70
2021/12/11 11:46:36;;;;;;;;;;;2.50;99.90;;;;;;5034830;28;19905;-70
2021/12/11 11:49:03;;;;;;;;;;;2.50;99.90;;;;;;5035005;28;19916;-70
2021/12/11 11:51:36;;;;;;;;;;;2.50;99.90;;;;;;5034278;28;20383;-70
2021/12/11 11:54:03;;;;;;;;;;;2.50;99.90;;;;;;5034793;28;19971;-70
2021/12/11 11:56:30;;;;;;;;;;;2.60;99.90;;;;;;5034583;28;19948;-70
2021/12/11 11:58:55;;;;;;;;;;;2.60;99.90;;;;;;5035409;28;20348;-70
2021/12/11 12:01:38;;;;;;;;;;;2.60;99.90;;;;;;5035788;28;19924;-70
2021/12/11 12:04:05;;;;;;;;;;;2.70;99.90;;;;;;5029843;28;20367;-70
2021/12/11 12:06:33;;;;;;;;;;;2.70;99.90;;;;;;5030183;28;20353;-71
2021/12/11 12:09:00;;;;;;;;;;;2.80;99.90;;;;;;5032714;28;19920;-70
2021/12/11 12:11:27;;;;;;;;;;;2.80;99.90;;;;;;5032207;28;19916;-70
2021/12/11 12:13:52;;;;;;;;;;;2.80;99.90;;;;;;5033959;28;19976;-70
2021/12/11 12:16:18;;;;;;;;;;;2.90;99.90;;;;;;5034222;28;19913;-70
2021/12/11 12:18:43;;;;;;;;;;;2.90;99.90;;;;;;5034627;28;19915;-70
2021/12/11 12:21:11;;;;;;;;;;;2.90;99.90;;;;;;5033191;28;19916;-67
2021/12/11 12:23:36;;;;;;;;;;;2.90;99.90;;;;;;5033390;28;19915;-70
2021/12/11 12:26:11;;;;;;;;;;;3.00;99.90;;;;;;5034301;28;19913;-70
2021/12/11 12:28:36;;;;;;;;;;;3.00;99.90;;;;;;5024775;28;20256;-69
2021/12/11 12:31:07;;;;;;;;;;;3.00;99.90;;;;;;5032966;28;20007;-70
2021/12/11 12:33:33;;;;;;;;;;;3.10;99.90;;;;;;5033393;28;19909;-70
2021/12/11 12:35:59;;;;;;;;;;;3.10;99.90;;;;;;5033142;28;19919;-69
2021/12/11 12:38:26;;;;;;;;;;;3.20;99.90;;;;;;5033834;28;20345;-70
2021/12/11 12:41:00;;;;;;;;;;;3.20;99.90;;;;;;5033340;28;19996;-69
2021/12/11 12:43:56;;;;;;;;;;;3.20;99.90;;;;;;5034113;28;19995;-69
2021/12/11 12:46:21;;;;;;;;;;;3.10;99.90;;;;;;5033920;28;19912;-69
2021/12/11 12:48:47;;;;;;;;;;;3.10;99.90;;;;;;5033733;28;19951;-67
2021/12/11 12:51:14;;;;;;;;;;;3.10;99.90;;;;;;5032759;28;19905;-69
2021/12/11 12:53:44;;;;;;;;;;;3.10;99.90;;;;;;5033468;28;19935;-69
2021/12/11 12:56:26;;;;;;;;;;;3.10;99.90;;;;;;5032160;28;19913;-69
2021/12/11 12:58:57;;;;;;;;;;;3.20;99.90;;;;;;5052042;28;20368;-69
2021/12/11 13:01:24;;;;;;;;;;;3.20;99.90;;;;;;5052675;28;19909;-69
2021/12/11 13:03:51;;;;;;;;;;;3.20;99.90;;;;;;5033501;28;19995;-69
2021/12/11 13:06:19;;;;;;;;;;;3.20;99.90;;;;;;5033331;28;19905;-69
2021/12/11 13:08:50;;;;;;;;;;;3.20;99.90;;;;;;5033147;28;19912;-69
2021/12/11 13:11:19;;;;;;;;;;;3.20;99.90;;;;;;5032777;28;19908;-69
2021/12/11 13:13:45;;;;;;;;;;;3.20;99.90;;;;;;5033274;28;19905;-69
2021/12/11 13:16:16;;;;;;;;;;;3.20;99.90;;;;;;5033049;28;19909;-69
2021/12/11 13:18:45;;;;;;;;;;;3.20;99.90;;;;;;5033037;28;19909;-69
2021/12/11 13:21:10;;;;;;;;;;;3.20;99.90;;;;;;5031937;28;19940;-69
2021/12/11 13:23:38;;;;;;;;;;;3.20;99.90;;;;;;5032861;28;19916;-69
2021/12/11 13:26:04;;;;;;;;;;;3.20;99.90;;;;;;5033076;28;19920;-69
2021/12/11 13:28:32;;;;;;;;;;;3.20;99.90;;;;;;5032750;28;19948;-69
2021/12/11 13:31:00;;;;;;;;;;;3.20;99.90;;;;;;5031740;28;19909;-69
2021/12/11 13:33:27;;;;;;;;;;;3.20;99.90;;;;;;5032266;28;19920;-70
2021/12/11 13:35:53;;;;;;;;;;;3.10;99.90;;;;;;5030992;28;19916;-69
2021/12/11 13:38:20;;;;;;;;;;;3.10;99.90;;;;;;5032628;28;19909;-69
2021/12/11 13:40:47;;;;;;;;;;;3.10;99.90;;;;;;5032148;28;19916;-69
2021/12/11 13:43:13;;;;;;;;;;;3.10;99.90;;;;;;5032549;28;19917;-69
2021/12/11 13:45:40;;;;;;;;;;;3.10;99.90;;;;;;5047393;28;19913;-69
2021/12/11 13:48:07;;;;;;;;;;;3.10;99.90;;;;;;5040732;28;19909;-69
2021/12/11 13:50:38;;;;;;;;;;;3.10;99.90;;;;;;5030869;28;19966;-69
2021/12/11 13:53:04;;;;;;;;;;;3.20;99.90;;;;;;5032371;28;20280;-69
2021/12/11 13:55:29;;;;;;;;;;;3.10;99.90;;;;;;5032368;28;19912;-69
2021/12/11 13:57:55;;;;;;;;;;;3.10;99.90;;;;;;5031968;28;19992;-69
2021/12/11 14:00:25;;;;;;;;;;;3.10;99.90;;;;;;5035053;28;19924;-69
2021/12/11 14:02:51;;;;;;;;;;;3.10;99.90;;;;;;5032120;28;19909;-68
2021/12/11 14:05:16;;;;;;;;;;;3.10;99.90;;;;;;5032365;28;19943;-69
2021/12/11 14:07:42;;;;;;;;;;;3.10;99.90;;;;;;5032444;28;19931;-69
2021/12/11 14:10:10;;;;;;;;;;;3.10;99.90;;;;;;5031289;28;19912;-69
2021/12/11 14:12:36;;;;;;;;;;;3.00;99.90;;;;;;5032180;28;19936;-69
2021/12/11 14:15:03;;;;;;;;;;;3.00;99.90;;;;;;5031846;28;19913;-69
2021/12/11 14:17:29;;;;;;;;;;;3.00;99.90;;;;;;5031633;28;19905;-69
2021/12/11 14:19:55;;;;;;;;;;;2.90;99.90;;;;;;5030779;28;20015;-69
2021/12/11 14:22:23;;;;;;;;;;;2.90;99.90;;;;;;5031114;28;20261;-69
2021/12/11 14:24:49;;;;;;;;;;;2.80;99.90;;;;;;5030800;28;20352;-69
2021/12/11 14:27:16;;;;;;;;;;;2.80;99.90;;;;;;5031307;28;20382;-69
2021/12/11 14:29:45;;;;;;;;;;;2.80;99.90;;;;;;5030688;28;19913;-69
2021/12/11 14:32:12;;;;;;;;;;;2.70;99.90;;;;;;5034065;28;19909;-69
2021/12/11 14:34:37;;;;;;;;;;;2.70;99.90;;;;;;5049929;28;19909;-69
2021/12/11 14:37:03;;;;;;;;;;;2.70;99.90;;;;;;5056091;28;20326;-69
2021/12/11 14:39:30;;;;;;;;;;;2.60;99.90;;;;;;5041324;28;20275;-69
2021/12/11 14:41:55;;;;;;;;;;;2.60;99.90;;;;;;5035460;28;19948;-69
2021/12/11 14:44:24;;;;;;;;;;;2.70;99.90;;;;;;5035567;28;19913;-68